Time;durP1;ratioP1;P1;durP2;ratioP2;P2;SDS_P1;SDS_P2;PMS_P1;PMS_P2;Temp;Humidity;BMP_temperature;BMP_pressure;BME280_temperature;BME280_humidity;BME280_pressure;Samples;Min_cycle;Max_cycle;Signal;HPM_P1;HPM_P2
2021/08/10 00:01:02;;;;;;;2.75;2.00;;;;;21.80;101380.00;;;;5052229;28;20246;-76
2021/08/10 00:03:30;;;;;;;2.85;1.92;;;;;21.80;101377.00;;;;5053501;28;20195;-76
2021/08/10 00:05:57;;;;;;;2.83;1.73;;;;;21.80;101374.00;;;;5052531;28;20559;-76
2021/08/10 00:08:24;;;;;;;4.60;2.13;;;;;21.80;101369.00;;;;5052766;28;20207;-74
2021/08/10 00:10:53;;;;;;;1.67;1.55;;;;;21.70;101370.00;;;;5052181;28;20700;-74
2021/08/10 00:13:22;;;;;;;2.50;1.90;;;;;21.70;101366.00;;;;5052320;28;20203;-74
2021/08/10 00:15:49;;;;;;;1.63;1.52;;;;;21.70;101368.00;;;;5052474;28;20199;-74
2021/08/10 00:18:17;;;;;;;4.90;2.35;;;;;21.70;101363.00;;;;5052435;28;20212;-75
2021/08/10 00:20:44;;;;;;;2.78;1.80;;;;;21.70;101367.00;;;;5066287;28;20233;-75
2021/08/10 00:23:12;;;;;;;4.80;1.92;;;;;21.70;101362.00;;;;5071862;28;20661;-75
2021/08/10 00:25:39;;;;;;;2.58;2.08;;;;;21.70;101366.00;;;;5072586;28;20206;-75
2021/08/10 00:28:08;;;;;;;2.72;1.90;;;;;21.70;101368.00;;;;5072145;28;20600;-75
2021/08/10 00:30:35;;;;;;;4.32;2.15;;;;;21.70;101370.00;;;;5072699;28;20207;-75
2021/08/10 00:33:02;;;;;;;4.25;2.10;;;;;21.70;101367.00;;;;5071518;28;20215;-75
2021/08/10 00:35:30;;;;;;;4.70;1.73;;;;;21.70;101372.00;;;;5071366;28;21298;-75
2021/08/10 00:37:57;;;;;;;3.05;2.00;;;;;21.70;101373.00;;;;5071102;28;20202;-75
2021/08/10 00:40:25;;;;;;;4.10;2.05;;;;;21.70;101368.00;;;;5072222;28;20198;-75
2021/08/10 00:42:52;;;;;;;4.95;2.13;;;;;21.70;101365.00;;;;5071474;28;20230;-75
2021/08/10 00:45:21;;;;;;;2.95;1.92;;;;;21.60;101364.00;;;;5071406;28;20692;-75
2021/08/10 00:47:48;;;;;;;2.40;1.67;;;;;21.60;101362.00;;;;5071743;28;20272;-74
2021/08/10 00:50:15;;;;;;;2.92;1.90;;;;;21.60;101367.00;;;;5071899;28;20296;-75
2021/08/10 00:52:43;;;;;;;2.40;1.90;;;;;21.60;101362.00;;;;5072000;28;20214;-74
2021/08/10 00:55:12;;;;;;;2.00;1.63;;;;;21.60;101365.00;;;;5069952;28;20676;-75
2021/08/10 00:57:40;;;;;;;2.47;2.05;;;;;21.60;101369.00;;;;5071884;28;20203;-75
2021/08/10 01:00:08;;;;;;;2.00;1.75;;;;;21.60;101361.00;;;;5071387;28;20233;-75
2021/08/10 01:02:36;;;;;;;2.47;1.55;;;;;21.60;101359.00;;;;5066775;28;20216;-75
2021/08/10 01:05:04;;;;;;;2.72;1.83;;;;;21.60;101357.00;;;;5050374;28;20203;-75
2021/08/10 01:07:37;;;;;;;2.60;2.10;;;;;21.50;101348.00;;;;5053098;28;20490;-75
2021/08/10 01:10:12;;;;;;;3.25;1.70;;;;;21.50;101356.00;;;;5051820;28;20196;-75
2021/08/10 01:12:48;;;;;;;2.13;1.92;;;;;21.50;101364.00;;;;5051808;28;20195;-75
2021/08/10 01:15:18;;;;;;;2.67;1.80;;;;;21.50;101350.00;;;;5051000;28;20283;-75
2021/08/10 01:17:54;;;;;;;3.08;2.17;;;;;21.50;101359.00;;;;5051666;28;20199;-75
2021/08/10 01:20:46;;;;;;;2.35;1.90;;;;;21.50;101358.00;;;;5051434;28;20194;-75
2021/08/10 01:23:18;;;;;;;2.35;1.60;;;;;21.50;101342.00;;;;5050981;28;20238;-75
2021/08/10 01:25:56;;;;;;;2.90;1.98;;;;;21.50;101357.00;;;;5051501;28;20204;-75
2021/08/10 01:28:52;;;;;;;2.17;1.63;;;;;21.40;101356.00;;;;5052015;28;20429;-75
2021/08/10 01:31:28;;;;;;;3.03;1.70;;;;;21.40;101350.00;;;;5050736;28;20281;-75
2021/08/10 01:34:04;;;;;;;3.08;2.00;;;;;21.40;101349.00;;;;5051027;28;20600;-75
2021/08/10 01:36:32;;;;;;;2.70;2.05;;;;;21.40;101345.00;;;;5051133;28;20203;-75
2021/08/10 01:39:03;;;;;;;2.88;2.20;;;;;21.40;101342.00;;;;5050909;28;20257;-75
2021/08/10 01:41:32;;;;;;;2.83;2.08;;;;;21.40;101344.00;;;;5050366;28;21000;-75
2021/08/10 01:44:02;;;;;;;3.90;1.88;;;;;21.40;101343.00;;;;5050603;28;20200;-75
2021/08/10 01:46:31;;;;;;;3.53;2.05;;;;;21.40;101344.00;;;;5070555;28;20210;-75
2021/08/10 01:49:00;;;;;;;4.22;2.17;;;;;21.40;101347.00;;;;5070588;28;20199;-75
2021/08/10 01:51:29;;;;;;;3.88;2.25;;;;;21.40;101346.00;;;;5070703;28;20226;-75
2021/08/10 01:53:59;;;;;;;2.08;1.65;;;;;21.40;101348.00;;;;5070350;28;20198;-75
2021/08/10 01:56:27;;;;;;;2.88;1.77;;;;;21.40;101339.00;;;;5070604;28;20230;-75
2021/08/10 01:58:57;;;;;;;2.83;2.50;;;;;21.40;101348.00;;;;5070579;28;20207;-75
2021/08/10 02:01:26;;;;;;;1.95;1.70;;;;;21.40;101341.00;;;;5067830;28;20202;-76
2021/08/10 02:03:55;;;;;;;2.80;2.03;;;;;21.30;101352.00;;;;5049925;28;20203;-76
2021/08/10 02:06:24;;;;;;;2.28;2.08;;;;;21.40;101356.00;;;;5049450;28;20218;-76
2021/08/10 02:08:54;;;;;;;2.88;1.95;;;;;21.40;101360.00;;;;5050309;28;20290;-75
2021/08/10 02:11:24;;;;;;;2.50;1.73;;;;;21.30;101356.00;;;;5050333;28;20231;-75
2021/08/10 02:13:52;;;;;;;5.57;2.15;;;;;21.40;101360.00;;;;5050151;28;20207;-75
2021/08/10 02:16:20;;;;;;;2.20;1.92;;;;;21.40;101364.00;;;;5049269;28;20214;-76
2021/08/10 02:18:48;;;;;;;3.60;1.83;;;;;21.40;101365.00;;;;5055935;28;20211;-75
2021/08/10 02:21:25;;;;;;;3.97;1.90;;;;;21.30;101352.00;;;;5070097;28;20190;-75
2021/08/10 02:23:59;;;;;;;2.85;1.85;;;;;21.40;101351.00;;;;5069960;28;20206;-75
2021/08/10 02:26:29;;;;;;;11.52;2.25;;;;;21.40;101351.00;;;;5069621;28;20202;-75
2021/08/10 02:28:58;;;;;;;2.03;1.67;;;;;21.40;101344.00;;;;5069598;28;20675;-75
2021/08/10 02:31:28;;;;;;;2.83;2.30;;;;;21.40;101344.00;;;;5070347;28;20191;-76
2021/08/10 02:33:56;;;;;;;2.75;2.05;;;;;21.40;101347.00;;;;5069940;28;20211;-75
2021/08/10 02:36:28;;;;;;;3.13;2.00;;;;;21.40;101340.00;;;;5062158;28;20258;-75
2021/08/10 02:38:58;;;;;;;2.33;1.95;;;;;21.40;101347.00;;;;5064420;28;20191;-75
2021/08/10 02:41:25;;;;;;;3.47;1.75;;;;;21.40;101345.00;;;;5069548;28;20198;-75
2021/08/10 02:43:53;;;;;;;3.88;1.75;;;;;21.40;101347.00;;;;5069628;28;20206;-75
2021/08/10 02:46:20;;;;;;;2.58;2.08;;;;;21.40;101347.00;;;;5069549;28;20661;-75
2021/08/10 02:48:48;;;;;;;2.67;1.88;;;;;21.40;101344.00;;;;5069568;28;20675;-76
2021/08/10 02:51:15;;;;;;;2.67;1.85;;;;;21.30;101339.00;;;;5069912;28;20199;-76
2021/08/10 02:53:43;;;;;;;2.55;2.17;;;;;21.30;101344.00;;;;5056143;28;20212;-75
2021/08/10 02:56:16;;;;;;;3.47;2.05;;;;;21.30;101349.00;;;;5048770;28;20222;-75
2021/08/10 02:58:47;;;;;;;2.97;1.80;;;;;21.30;101349.00;;;;5050323;28;20203;-76
2021/08/10 03:01:17;;;;;;;1.95;1.67;;;;;21.30;101355.00;;;;5049309;28;20203;-75
2021/08/10 03:03:48;;;;;;;4.30;2.20;;;;;21.30;101350.00;;;;5049535;28;20289;-75
2021/08/10 03:06:16;;;;;;;2.50;1.60;;;;;21.30;101355.00;;;;5066125;28;20294;-75
2021/08/10 03:08:51;;;;;;;2.78;1.83;;;;;21.30;101348.00;;;;5069094;28;20195;-76
2021/08/10 03:11:18;;;;;;;2.40;1.27;;;;;21.30;101356.00;;;;5050477;28;20283;-75
2021/08/10 03:13:47;;;;;;;2.63;1.90;;;;;21.30;101358.00;;;;5049739;28;20582;-75
2021/08/10 03:16:16;;;;;;;4.32;2.03;;;;;21.30;101357.00;;;;5049432;28;20207;-75
2021/08/10 03:18:47;;;;;;;3.78;1.60;;;;;21.20;101358.00;;;;5049597;28;20249;-76
2021/08/10 03:21:15;;;;;;;4.18;1.98;;;;;21.30;101357.00;;;;5048696;28;20219;-75
2021/08/10 03:23:44;;;;;;;5.50;2.13;;;;;21.30;101359.00;;;;5049329;28;20235;-75
2021/08/10 03:26:16;;;;;;;2.55;1.35;;;;;21.30;101361.00;;;;5048952;28;20203;-75
2021/08/10 03:28:45;;;;;;;2.38;2.03;;;;;21.30;101356.00;;;;5049429;28;20208;-75
2021/08/10 03:31:13;;;;;;;2.92;1.98;;;;;21.30;101363.00;;;;5049517;28;20199;-75
2021/08/10 03:33:42;;;;;;;2.58;2.10;;;;;21.30;101364.00;;;;5048808;28;20219;-76
2021/08/10 03:36:10;;;;;;;5.10;2.13;;;;;21.30;101365.00;;;;5048926;28;20231;-76
2021/08/10 03:38:39;;;;;;;3.47;2.03;;;;;21.30;101374.00;;;;5049193;28;20204;-76
2021/08/10 03:41:08;;;;;;;2.97;2.08;;;;;21.30;101366.00;;;;5048813;28;20207;-75
2021/08/10 03:43:37;;;;;;;2.28;1.75;;;;;21.20;101368.00;;;;5049748;28;20231;-75
2021/08/10 03:46:06;;;;;;;2.90;1.83;;;;;21.20;101365.00;;;;5047889;28;20203;-75
2021/08/10 03:48:36;;;;;;;2.70;1.85;;;;;21.20;101365.00;;;;5048581;28;20199;-75
2021/08/10 03:51:03;;;;;;;3.00;2.50;;;;;21.20;101373.00;;;;5047685;28;20203;-76
2021/08/10 03:53:31;;;;;;;3.97;2.50;;;;;21.20;101374.00;;;;5048732;28;20204;-75
2021/08/10 03:55:59;;;;;;;9.35;2.00;;;;;21.20;101373.00;;;;5047746;28;20208;-75
2021/08/10 03:58:28;;;;;;;7.10;2.42;;;;;21.10;101368.00;;;;5048285;28;20207;-75
2021/08/10 04:00:58;;;;;;;2.63;2.08;;;;;21.10;101364.00;;;;5054952;28;20210;-76
2021/08/10 04:03:30;;;;;;;3.40;2.22;;;;;21.10;101373.00;;;;5048428;28;20232;-75
2021/08/10 04:05:59;;;;;;;4.90;2.50;;;;;21.10;101370.00;;;;5048094;28;20333;-75
2021/08/10 04:08:28;;;;;;;3.13;1.98;;;;;21.10;101371.00;;;;5047625;28;20203;-75
2021/08/10 04:10:55;;;;;;;5.95;2.58;;;;;21.10;101369.00;;;;5047743;28;20338;-75
2021/08/10 04:13:24;;;;;;;4.70;2.97;;;;;21.10;101362.00;;;;5048076;28;20704;-75
2021/08/10 04:15:52;;;;;;;4.70;1.73;;;;;21.00;101370.00;;;;5047888;28;20290;-75
2021/08/10 04:18:22;;;;;;;4.30;2.58;;;;;21.00;101369.00;;;;5048440;28;20211;-75
2021/08/10 04:20:51;;;;;;;2.97;2.35;;;;;21.00;101364.00;;;;5048218;28;20207;-76
2021/08/10 04:23:19;;;;;;;4.93;2.05;;;;;21.00;101364.00;;;;5048926;28;20234;-75
2021/08/10 04:25:47;;;;;;;3.30;2.15;;;;;21.00;101365.00;;;;5048133;28;20207;-75
2021/08/10 04:28:15;;;;;;;2.60;2.25;;;;;21.00;101359.00;;;;5048362;28;20203;-76
2021/08/10 04:30:43;;;;;;;2.60;2.28;;;;;21.00;101365.00;;;;5048778;28;20206;-75
2021/08/10 04:33:11;;;;;;;4.93;2.30;;;;;21.00;101365.00;;;;5047903;28;20219;-75
2021/08/10 04:35:39;;;;;;;4.03;2.22;;;;;21.00;101362.00;;;;5047690;28;20729;-75
2021/08/10 04:38:06;;;;;;;2.13;1.92;;;;;21.00;101358.00;;;;5048500;28;20200;-75
2021/08/10 04:40:34;;;;;;;4.80;2.22;;;;;21.00;101361.00;;;;5051951;28;20191;-76
2021/08/10 04:43:01;;;;;;;2.92;2.42;;;;;21.00;101366.00;;;;5051637;28;20231;-75
2021/08/10 04:45:29;;;;;;;3.60;2.13;;;;;21.00;101373.00;;;;5052198;28;20192;-76
2021/08/10 04:47:56;;;;;;;3.38;2.60;;;;;21.00;101365.00;;;;5051372;28;20195;-76
2021/08/10 04:50:24;;;;;;;2.47;1.98;;;;;21.00;101365.00;;;;5052352;28;20196;-76
2021/08/10 04:52:53;;;;;;;3.92;2.20;;;;;20.90;101360.00;;;;5051455;28;20215;-76
2021/08/10 04:55:20;;;;;;;3.83;2.40;;;;;20.90;101359.00;;;;5051875;28;20211;-76
2021/08/10 04:57:47;;;;;;;2.20;2.00;;;;;20.90;101362.00;;;;5051968;28;20204;-77
2021/08/10 05:00:15;;;;;;;2.10;1.80;;;;;20.90;101364.00;;;;5051684;28;20207;-76
2021/08/10 05:02:42;;;;;;;4.88;2.08;;;;;20.90;101367.00;;;;5051164;28;20268;-76
2021/08/10 05:05:10;;;;;;;5.00;2.25;;;;;21.00;101373.00;;;;5051442;28;20214;-76
2021/08/10 05:07:38;;;;;;;2.33;1.92;;;;;21.00;101370.00;;;;5051486;28;20203;-77
2021/08/10 05:10:07;;;;;;;2.42;1.92;;;;;21.00;101373.00;;;;5050694;28;20657;-76
2021/08/10 05:12:36;;;;;;;4.03;2.17;;;;;21.00;101378.00;;;;5051016;28;20215;-76
2021/08/10 05:15:05;;;;;;;2.53;1.98;;;;;21.00;101379.00;;;;5050241;28;20277;-76
2021/08/10 05:17:32;;;;;;;4.05;2.22;;;;;21.00;101380.00;;;;5051006;28;20562;-76
2021/08/10 05:19:59;;;;;;;2.25;1.85;;;;;21.00;101376.00;;;;5050456;28;20207;-76
2021/08/10 05:22:27;;;;;;;3.60;2.55;;;;;21.00;101382.00;;;;5051162;28;20206;-76
2021/08/10 05:24:54;;;;;;;2.67;1.60;;;;;21.00;101387.00;;;;5050225;28;20211;-76
2021/08/10 05:27:22;;;;;;;2.88;1.90;;;;;21.10;101379.00;;;;5050310;28;20215;-76
2021/08/10 05:29:50;;;;;;;2.65;1.98;;;;;21.10;101383.00;;;;5051127;28;20200;-77
2021/08/10 05:32:17;;;;;;;5.43;2.20;;;;;21.10;101382.00;;;;5050586;28;20207;-76
2021/08/10 05:34:44;;;;;;;3.05;1.92;;;;;21.10;101389.00;;;;5050460;28;20231;-76
2021/08/10 05:37:11;;;;;;;4.60;2.45;;;;;21.20;101393.00;;;;5049159;28;20192;-77
2021/08/10 05:39:39;;;;;;;4.28;2.30;;;;;21.20;101389.00;;;;5050608;28;20211;-76
2021/08/10 05:42:06;;;;;;;3.33;2.03;;;;;21.20;101391.00;;;;5050397;28;20578;-77
2021/08/10 05:44:35;;;;;;;3.08;2.10;;;;;21.30;101389.00;;;;5050022;28;20234;-77
2021/08/10 05:47:02;;;;;;;4.22;2.05;;;;;21.30;101389.00;;;;5049744;28;20199;-76
2021/08/10 05:49:29;;;;;;;7.28;2.38;;;;;21.30;101395.00;;;;5049835;28;20199;-76
2021/08/10 05:51:58;;;;;;;2.80;2.05;;;;;21.40;101394.00;;;;5050312;28;20207;-76
2021/08/10 05:54:25;;;;;;;2.33;1.63;;;;;21.40;101400.00;;;;5050121;28;20208;-76
2021/08/10 05:56:52;;;;;;;2.83;1.90;;;;;21.50;101395.00;;;;5049443;28;20206;-76
2021/08/10 05:59:19;;;;;;;3.38;2.00;;;;;21.50;101400.00;;;;5050289;28;20692;-77
2021/08/10 06:01:48;;;;;;;2.40;1.88;;;;;21.60;101393.00;;;;5049370;28;20200;-76
2021/08/10 06:04:16;;;;;;;4.65;1.80;;;;;21.70;101390.00;;;;5049679;28;20235;-77
2021/08/10 06:06:43;;;;;;;3.10;2.03;;;;;21.70;101392.00;;;;5049735;28;20713;-76
2021/08/10 06:09:10;;;;;;;2.72;2.08;;;;;21.80;101401.00;;;;5049525;28;20202;-77
2021/08/10 06:11:37;;;;;;;2.83;2.03;;;;;21.80;101389.00;;;;5049628;28;20199;-76
2021/08/10 06:14:05;;;;;;;2.78;1.88;;;;;21.80;101406.00;;;;5049482;28;20207;-76
2021/08/10 06:16:33;;;;;;;3.58;2.28;;;;;21.90;101415.00;;;;5050436;28;20210;-77
2021/08/10 06:19:02;;;;;;;5.13;2.55;;;;;21.90;101413.00;;;;5049574;28;20298;-76
2021/08/10 06:21:30;;;;;;;4.65;2.40;;;;;22.00;101409.00;;;;5049425;28;20273;-76
2021/08/10 06:23:57;;;;;;;3.40;2.17;;;;;22.00;101413.00;;;;5048848;28;20309;-76
2021/08/10 06:26:25;;;;;;;4.63;2.40;;;;;22.00;101414.00;;;;5049599;28;20249;-76
2021/08/10 06:28:52;;;;;;;2.42;2.10;;;;;22.10;101413.00;;;;5049279;28;20230;-76
2021/08/10 06:31:19;;;;;;;4.47;1.95;;;;;22.10;101424.00;;;;5049534;28;20614;-76
2021/08/10 06:33:46;;;;;;;2.35;2.10;;;;;22.10;101417.00;;;;5050023;28;20319;-76
2021/08/10 06:36:15;;;;;;;3.42;2.03;;;;;22.10;101418.00;;;;5049811;28;20234;-76
2021/08/10 06:38:42;;;;;;;3.20;2.20;;;;;22.20;101418.00;;;;5049742;28;20203;-76
2021/08/10 06:41:09;;;;;;;3.28;2.20;;;;;22.20;101417.00;;;;5049449;28;20211;-76
2021/08/10 06:43:37;;;;;;;4.38;2.10;;;;;22.30;101417.00;;;;5049316;28;20635;-76
2021/08/10 06:46:04;;;;;;;7.32;2.47;;;;;22.30;101419.00;;;;5049490;28;20598;-77
2021/08/10 06:48:31;;;;;;;5.05;2.22;;;;;22.40;101411.00;;;;5049716;28;20203;-77
2021/08/10 06:51:01;;;;;;;4.45;2.65;;;;;22.50;101421.00;;;;5050101;28;20210;-76
2021/08/10 06:53:29;;;;;;;2.92;1.77;;;;;22.50;101413.00;;;;5049160;28;20199;-76
2021/08/10 06:55:57;;;;;;;4.55;2.20;;;;;22.50;101415.00;;;;5048940;28;20196;-76
2021/08/10 06:58:24;;;;;;;2.30;1.55;;;;;22.60;101413.00;;;;5049695;28;20203;-77
2021/08/10 07:00:51;;;;;;;3.83;2.22;;;;;22.60;101413.00;;;;5048411;28;20627;-76
2021/08/10 07:03:18;;;;;;;4.45;2.40;;;;;22.70;101424.00;;;;5049334;28;20227;-77
2021/08/10 07:05:46;;;;;;;5.60;2.25;;;;;22.70;101413.00;;;;5049620;28;20208;-76
2021/08/10 07:08:13;;;;;;;4.05;2.70;;;;;22.70;101414.00;;;;5058498;28;20199;-76
2021/08/10 07:10:41;;;;;;;3.58;2.20;;;;;22.70;101425.00;;;;5069785;28;20199;-76
2021/08/10 07:13:09;;;;;;;3.58;2.47;;;;;22.80;101426.00;;;;5068293;28;20202;-76
2021/08/10 07:15:37;;;;;;;2.88;2.15;;;;;22.80;101418.00;;;;5069611;28;20199;-77
2021/08/10 07:18:04;;;;;;;2.92;2.20;;;;;22.80;101420.00;;;;5069011;28;20194;-77
2021/08/10 07:20:31;;;;;;;4.90;2.13;;;;;22.80;101419.00;;;;5069484;28;20210;-76
2021/08/10 07:22:59;;;;;;;5.53;2.53;;;;;22.90;101427.00;;;;5068334;28;20214;-76
2021/08/10 07:25:26;;;;;;;5.53;2.65;;;;;22.90;101422.00;;;;5068512;28;20211;-77
2021/08/10 07:27:55;;;;;;;3.22;2.40;;;;;22.90;101426.00;;;;5068992;28;20553;-76
2021/08/10 07:30:22;;;;;;;4.22;2.30;;;;;23.00;101429.00;;;;5069153;28;20277;-76
2021/08/10 07:32:49;;;;;;;3.92;2.10;;;;;23.00;101423.00;;;;5068372;28;20223;-76
2021/08/10 07:35:16;;;;;;;4.50;2.17;;;;;23.10;101425.00;;;;5068894;28;20245;-76
2021/08/10 07:37:44;;;;;;;5.65;2.63;;;;;23.10;101430.00;;;;5069433;28;20202;-76
2021/08/10 07:40:13;;;;;;;4.55;2.28;;;;;23.20;101425.00;;;;5068408;28;20214;-76
2021/08/10 07:42:41;;;;;;;7.30;2.67;;;;;23.20;101427.00;;;;5068330;28;20510;-76
2021/08/10 07:45:10;;;;;;;4.72;2.67;;;;;23.20;101424.00;;;;5069007;28;20232;-77
2021/08/10 07:47:38;;;;;;;5.80;2.70;;;;;23.30;101433.00;;;;5068964;28;20206;-76
2021/08/10 07:50:05;;;;;;;5.10;2.33;;;;;23.40;101432.00;;;;5068664;28;20210;-74
2021/08/10 07:52:33;;;;;;;4.18;2.20;;;;;23.40;101424.00;;;;5069006;28;20209;-74
2021/08/10 07:55:00;;;;;;;4.40;2.03;;;;;23.50;101426.00;;;;5068364;28;20206;-74
2021/08/10 07:57:27;;;;;;;5.22;2.08;;;;;23.50;101429.00;;;;5069037;28;20210;-75
2021/08/10 07:59:54;;;;;;;3.22;1.95;;;;;23.60;101426.00;;;;5052613;28;20195;-74
2021/08/10 08:02:23;;;;;;;4.35;1.85;;;;;23.60;101427.00;;;;5049424;28;20206;-75
2021/08/10 08:04:50;;;;;;;6.68;2.20;;;;;23.60;101436.00;;;;5048577;28;20236;-75
2021/08/10 08:07:17;;;;;;;3.70;2.05;;;;;23.70;101431.00;;;;5048366;28;20211;-76
2021/08/10 08:09:44;;;;;;;3.13;1.58;;;;;23.80;101430.00;;;;5048521;28;20622;-75
2021/08/10 08:12:12;;;;;;;2.92;1.63;;;;;23.80;101442.00;;;;5049382;28;20196;-75
2021/08/10 08:14:39;;;;;;;2.92;2.00;;;;;23.80;101431.00;;;;5052823;28;20207;-75
2021/08/10 08:17:06;;;;;;;4.40;1.60;;;;;23.90;101444.00;;;;5068554;28;20747;-75
2021/08/10 08:19:35;;;;;;;3.35;1.58;;;;;23.90;101436.00;;;;5072593;28;20213;-75
2021/08/10 08:22:02;;;;;;;5.07;1.90;;;;;23.90;101435.00;;;;5071885;28;20202;-75
2021/08/10 08:24:29;;;;;;;3.42;2.25;;;;;23.90;101423.00;;;;5072563;28;20260;-76
2021/08/10 08:26:56;;;;;;;3.47;2.00;;;;;24.00;101433.00;;;;5071897;28;20206;-76
2021/08/10 08:29:24;;;;;;;3.67;1.70;;;;;24.10;101429.00;;;;5071946;28;20203;-76
2021/08/10 08:31:51;;;;;;;2.55;1.50;;;;;24.10;101430.00;;;;5072145;28;20206;-75
2021/08/10 08:34:18;;;;;;;4.22;1.60;;;;;24.10;101422.00;;;;5070392;28;20245;-75
2021/08/10 08:36:47;;;;;;;1.98;1.63;;;;;24.20;101430.00;;;;5066847;28;20202;-75
2021/08/10 08:39:14;;;;;;;2.28;1.15;;;;;24.20;101435.00;;;;5064561;28;20206;-75
2021/08/10 08:41:42;;;;;;;4.45;1.88;;;;;24.30;101436.00;;;;5071790;28;20680;-75
2021/08/10 08:44:09;;;;;;;3.00;1.63;;;;;24.30;101435.00;;;;5071687;28;20227;-75
2021/08/10 08:46:38;;;;;;;2.75;2.10;;;;;24.30;101431.00;;;;5071579;28;20198;-74
2021/08/10 08:49:07;;;;;;;2.55;1.80;;;;;24.40;101436.00;;;;5071200;28;20211;-75
2021/08/10 08:51:34;;;;;;;3.47;2.10;;;;;24.50;101432.00;;;;5051758;28;20684;-75
2021/08/10 08:54:03;;;;;;;2.58;1.67;;;;;24.50;101435.00;;;;5051116;28;20200;-75
2021/08/10 08:56:31;;;;;;;3.38;2.03;;;;;24.60;101432.00;;;;5051488;28;20199;-76
2021/08/10 08:58:58;;;;;;;3.80;1.55;;;;;24.70;101436.00;;;;5052082;28;20210;-75
2021/08/10 09:01:25;;;;;;;2.47;1.40;;;;;24.80;101432.00;;;;5051597;28;20195;-75
2021/08/10 09:03:52;;;;;;;3.80;1.90;;;;;24.90;101432.00;;;;5051848;28;20219;-75
2021/08/10 09:06:21;;;;;;;2.88;1.65;;;;;25.00;101428.00;;;;5053185;28;20215;-75
2021/08/10 09:08:52;;;;;;;3.47;1.58;;;;;25.20;101430.00;;;;5071651;28;20249;-76
2021/08/10 09:11:23;;;;;;;3.00;1.60;;;;;25.30;101436.00;;;;5071609;28;20298;-76
2021/08/10 09:13:57;;;;;;;3.75;1.40;;;;;25.30;101447.00;;;;5071443;28;20211;-76
2021/08/10 09:16:25;;;;;;;3.22;1.40;;;;;25.50;101433.00;;;;5071710;28;20855;-76
2021/08/10 09:18:53;;;;;;;4.75;2.05;;;;;25.50;101437.00;;;;5071220;28;20199;-75
2021/08/10 09:21:21;;;;;;;4.38;1.33;;;;;25.50;101434.00;;;;5071202;28;20560;-76
2021/08/10 09:23:51;;;;;;;3.35;1.60;;;;;25.50;101439.00;;;;5069645;28;20230;-76
2021/08/10 09:26:21;;;;;;;4.07;1.38;;;;;25.50;101439.00;;;;5070966;28;20195;-75
2021/08/10 09:28:48;;;;;;;1.25;1.15;;;;;25.40;101445.00;;;;5070801;28;20665;-76
2021/08/10 09:31:34;;;;;;;2.47;1.38;;;;;25.20;101449.00;;;;5071009;28;20214;-75
2021/08/10 09:34:04;;;;;;;2.03;1.35;;;;;25.20;101445.00;;;;5070812;28;20219;-76
2021/08/10 09:36:31;;;;;;;2.40;1.33;;;;;25.10;101448.00;;;;5070590;28;20716;-76
2021/08/10 09:38:59;;;;;;;2.67;1.48;;;;;25.10;101452.00;;;;5070653;28;20211;-75
2021/08/10 09:41:28;;;;;;;2.67;1.38;;;;;24.90;101454.00;;;;5059659;28;20207;-75
2021/08/10 09:44:11;;;;;;;4.90;1.60;;;;;24.70;101453.00;;;;5050585;28;20226;-75
2021/08/10 09:46:45;;;;;;;5.78;1.52;;;;;24.80;101456.00;;;;5051111;28;20207;-75
2021/08/10 09:49:13;;;;;;;3.47;1.20;;;;;24.70;101456.00;;;;5050760;28;20750;-75
2021/08/10 09:51:43;;;;;;;3.30;1.80;;;;;24.60;101460.00;;;;5050818;28;20200;-75
2021/08/10 09:54:13;;;;;;;2.33;1.33;;;;;24.60;101451.00;;;;5049925;28;20211;-75
2021/08/10 09:56:50;;;;;;;1.85;1.50;;;;;24.60;101448.00;;;;5050498;28;20282;-75
2021/08/10 09:59:19;;;;;;;2.88;1.30;;;;;24.70;101446.00;;;;5061710;28;20199;-75
2021/08/10 10:01:49;;;;;;;2.35;1.20;;;;;24.70;101451.00;;;;5070798;28;21000;-75
2021/08/10 10:04:22;;;;;;;2.30;1.88;;;;;24.70;101445.00;;;;5070001;28;20242;-75
2021/08/10 10:06:51;;;;;;;3.45;1.33;;;;;24.80;101446.00;;;;5070052;28;20207;-75
2021/08/10 10:09:20;;;;;;;2.45;1.67;;;;;25.00;101441.00;;;;5050861;28;20207;-75
2021/08/10 10:11:51;;;;;;;4.65;2.17;;;;;25.10;101436.00;;;;5050264;28;20208;-76
2021/08/10 10:14:18;;;;;;;2.83;1.42;;;;;25.20;101450.00;;;;5050342;28;20214;-75
2021/08/10 10:16:48;;;;;;;2.65;2.03;;;;;25.30;101442.00;;;;5050156;28;20203;-76
2021/08/10 10:19:16;;;;;;;2.25;1.40;;;;;25.40;101443.00;;;;5050321;28;20195;-75
2021/08/10 10:21:47;;;;;;;3.42;1.70;;;;;25.60;101450.00;;;;5050468;28;20207;-75
2021/08/10 10:24:15;;;;;;;3.50;1.90;;;;;25.70;101443.00;;;;5050209;28;20254;-75
2021/08/10 10:26:45;;;;;;;3.72;1.50;;;;;25.80;101449.00;;;;5050303;28;20204;-76
2021/08/10 10:29:15;;;;;;;2.00;1.55;;;;;25.80;101454.00;;;;5049659;28;20204;-76
2021/08/10 10:31:44;;;;;;;3.60;2.08;;;;;25.80;101452.00;;;;5050034;28;20203;-76
2021/08/10 10:34:13;;;;;;;1.95;1.75;;;;;25.80;101456.00;;;;5049712;28;20224;-75
2021/08/10 10:36:43;;;;;;;2.35;1.70;;;;;25.80;101451.00;;;;5049310;28;20232;-75
2021/08/10 10:39:12;;;;;;;2.15;1.50;;;;;25.80;101450.00;;;;5049209;28;20643;-75
2021/08/10 10:41:40;;;;;;;2.60;1.40;;;;;25.80;101454.00;;;;5049661;28;20200;-75
2021/08/10 10:44:09;;;;;;;2.80;2.17;;;;;25.80;101451.00;;;;5049330;28;20222;-75
2021/08/10 10:46:39;;;;;;;3.70;2.05;;;;;25.80;101444.00;;;;5049813;28;20239;-75
2021/08/10 10:49:08;;;;;;;4.18;1.73;;;;;25.80;101442.00;;;;5049150;28;20211;-75
2021/08/10 10:51:37;;;;;;;2.85;1.73;;;;;25.80;101446.00;;;;5049491;28;20211;-75
2021/08/10 10:54:25;;;;;;;2.72;1.85;;;;;25.70;101451.00;;;;5048614;28;20210;-75
2021/08/10 10:56:54;;;;;;;3.55;2.00;;;;;25.80;101446.00;;;;5048926;28;20204;-75
2021/08/10 10:59:37;;;;;;;2.25;1.80;;;;;25.80;101440.00;;;;5049318;28;20199;-76
2021/08/10 11:02:18;;;;;;;1.85;1.67;;;;;25.80;101442.00;;;;5049090;28;20206;-75
2021/08/10 11:05:22;;;;;;;2.72;2.05;;;;;25.80;101449.00;;;;5048983;28;20698;-74
2021/08/10 11:07:52;;;;;;;4.43;2.10;;;;;25.90;101452.00;;;;5048949;28;20214;-75
2021/08/10 11:10:52;;;;;;;3.78;1.85;;;;;25.80;101448.00;;;;5049328;28;20257;-76
2021/08/10 11:13:37;;;;;;;4.38;2.08;;;;;25.80;101449.00;;;;4987347;28;20210;-74
2021/08/10 11:16:10;;;;;;;3.53;2.35;;;;;25.90;101448.00;;;;5043540;28;20191;-74
2021/08/10 11:18:39;;;;;;;3.97;2.58;;;;;25.90;101443.00;;;;5049329;28;20687;-74
2021/08/10 11:21:27;;;;;;;2.80;2.15;;;;;25.80;101454.00;;;;5048734;28;20208;-74
2021/08/10 11:23:55;;;;;;;3.05;2.20;;;;;25.90;101458.00;;;;5063493;28;20206;-74
2021/08/10 11:26:40;;;;;;;2.78;1.98;;;;;25.70;101458.00;;;;5068949;28;20261;-74
2021/08/10 11:29:10;;;;;;;2.67;2.25;;;;;25.80;101452.00;;;;5068694;28;20585;-75
2021/08/10 11:31:52;;;;;;;5.20;2.67;;;;;25.80;101446.00;;;;5068614;28;20579;-74
2021/08/10 11:34:34;;;;;;;3.42;2.50;;;;;25.70;101461.00;;;;5068668;28;20214;-74
2021/08/10 11:37:22;;;;;;;4.55;2.53;;;;;25.60;101451.00;;;;5064459;28;20202;-75
2021/08/10 11:40:04;;;;;;;2.75;1.85;;;;;25.60;101453.00;;;;5053992;28;20195;-75
2021/08/10 11:42:31;;;;;;;3.35;2.10;;;;;25.70;101447.00;;;;5048539;28;20736;-74
2021/08/10 11:45:00;;;;;;;3.88;2.42;;;;;25.70;101463.00;;;;5048313;28;20647;-74
2021/08/10 11:47:27;;;;;;;3.47;2.00;;;;;25.80;101456.00;;;;5048956;28;20200;-74
2021/08/10 11:49:56;;;;;;;5.40;2.30;;;;;25.80;101448.00;;;;5048582;28;20203;-74
2021/08/10 11:52:23;;;;;;;4.32;2.45;;;;;25.90;101450.00;;;;5048825;28;20211;-75
2021/08/10 11:54:58;;;;;;;3.35;1.88;;;;;25.90;101446.00;;;;5048106;28;20218;-74
2021/08/10 11:57:25;;;;;;;2.88;1.80;;;;;26.00;101446.00;;;;5049284;28;20250;-74
2021/08/10 12:00:13;;;;;;;4.43;2.63;;;;;26.00;101452.00;;;;5048706;28;20207;-74
2021/08/10 12:02:44;;;;;;;6.57;2.28;;;;;26.10;101450.00;;;;5048787;28;20673;-74
2021/08/10 12:05:13;;;;;;;6.45;2.40;;;;;26.20;101442.00;;;;5047893;28;20254;-74
2021/08/10 12:07:55;;;;;;;2.70;1.83;;;;;26.20;101451.00;;;;5048599;28;20195;-74
2021/08/10 12:10:29;;;;;;;4.53;1.95;;;;;26.30;101443.00;;;;5048621;28;20210;-75
2021/08/10 12:13:01;;;;;;;4.18;2.17;;;;;26.40;101443.00;;;;5048665;28;20204;-75
2021/08/10 12:15:44;;;;;;;4.10;1.67;;;;;26.40;101445.00;;;;5048149;28;20211;-75
2021/08/10 12:18:13;;;;;;;2.35;1.60;;;;;26.50;101442.00;;;;5048126;28;20207;-75
2021/08/10 12:20:42;;;;;;;3.35;1.90;;;;;26.60;101432.00;;;;5048883;28;20200;-75